createdAt,value
2022-12-25T00:02:07.115Z,7.10
2022-12-25T00:04:59.625Z,7.30
2022-12-25T00:07:37.031Z,7.10
2022-12-25T00:10:32.671Z,7.20
2022-12-25T00:13:00.079Z,7.20
2022-12-25T00:15:26.956Z,7.60
2022-12-25T00:18:43.509Z,7.80
2022-12-25T00:21:30.989Z,7.30
2022-12-25T00:24:59.523Z,7.80
2022-12-25T00:27:26.711Z,7.50
2022-12-25T00:40:07.337Z,7.60
2022-12-25T02:02:12.351Z,8.10
2022-12-25T02:04:43.283Z,8.10
2022-12-25T02:07:13.795Z,8.30
2022-12-25T02:09:40.536Z,8.10
2022-12-25T02:12:09.099Z,8.60
2022-12-25T02:14:37.090Z,8.10
2022-12-25T02:17:11.594Z,8.30
2022-12-25T02:19:58.108Z,8.10
2022-12-25T02:22:36.301Z,8.30
2022-12-25T02:25:20.381Z,8.10
2022-12-25T02:28:04.441Z,8.20
2022-12-25T02:30:36.633Z,8.10
2022-12-25T02:33:26.765Z,8.20
2022-12-25T02:35:56.400Z,8.20
2022-12-25T02:38:26.627Z,8.60
2022-12-25T02:40:58.352Z,9.00
2022-12-25T02:43:49.125Z,8.20
2022-12-25T02:46:37.980Z,8.30
2022-12-25T02:49:27.764Z,8.30
2022-12-25T02:52:24.690Z,8.20
2022-12-25T02:55:13.333Z,8.10
2022-12-25T02:58:01.795Z,8.10
2022-12-25T03:00:49.632Z,8.30
2022-12-25T03:03:36.113Z,8.00
2022-12-25T03:06:22.805Z,8.30
2022-12-25T03:08:52.290Z,8.20
2022-12-25T03:11:30.433Z,8.20
2022-12-25T03:14:15.842Z,8.20
2022-12-25T03:16:53.016Z,8.20
2022-12-25T03:19:40.940Z,8.20
2022-12-25T03:22:31.128Z,8.30
2022-12-25T03:25:16.325Z,8.20
2022-12-25T03:27:46.229Z,8.20
2022-12-25T03:30:30.604Z,8.90
2022-12-25T03:33:23.386Z,8.10
2022-12-25T03:36:02.547Z,8.40
2022-12-25T03:39:09.860Z,8.20
2022-12-25T03:42:01.849Z,8.10
2022-12-25T03:44:56.780Z,8.00
2022-12-25T03:47:47.199Z,7.90
2022-12-25T03:50:37.689Z,8.90
2022-12-25T03:53:28.113Z,7.90
2022-12-25T03:56:14.021Z,8.20
2022-12-25T03:59:08.626Z,7.70
2022-12-25T04:01:53.655Z,7.80
2022-12-25T04:04:38.671Z,7.70
2022-12-25T04:07:24.293Z,7.50
2022-12-25T04:10:11.498Z,7.40
2022-12-25T04:12:56.146Z,7.30
2022-12-25T04:15:41.127Z,7.20
2022-12-25T04:18:26.089Z,7.20
2022-12-25T04:21:13.507Z,7.10
2022-12-25T04:23:58.195Z,7.70
2022-12-25T04:26:42.769Z,7.10
2022-12-25T04:29:27.354Z,7.10
2022-12-25T04:32:12.146Z,7.00
2022-12-25T04:34:57.036Z,6.90
2022-12-25T04:37:23.612Z,6.80
2022-12-25T04:39:50.788Z,6.80
2022-12-25T04:42:17.545Z,7.00
2022-12-25T04:44:44.071Z,6.80
2022-12-25T04:47:11.975Z,6.80
2022-12-25T04:49:38.909Z,7.30
2022-12-25T04:52:05.457Z,6.70
2022-12-25T04:54:32.004Z,6.60
2022-12-25T04:57:02.031Z,7.40
2022-12-25T04:59:28.568Z,7.00
2022-12-25T05:01:55.223Z,6.40
2022-12-25T05:04:21.894Z,6.40
2022-12-25T05:06:48.387Z,6.40
2022-12-25T05:09:14.895Z,6.40
2022-12-25T05:11:41.415Z,6.10
2022-12-25T05:14:08.666Z,6.30
2022-12-25T05:16:35.288Z,6.40
2022-12-25T05:19:01.866Z,6.20
2022-12-25T05:21:28.364Z,6.20
2022-12-25T05:23:54.848Z,6.40
2022-12-25T05:26:23.385Z,6.20
2022-12-25T05:28:50.362Z,6.40
2022-12-25T05:31:18.516Z,6.40
2022-12-25T05:33:45.062Z,6.40
2022-12-25T05:36:12.447Z,6.60
2022-12-25T05:38:39.150Z,7.20
2022-12-25T05:41:05.728Z,7.20
2022-12-25T05:43:32.321Z,6.60
2022-12-25T05:46:04.153Z,6.60
2022-12-25T05:48:31.822Z,6.60
2022-12-25T05:51:02.597Z,6.70
2022-12-25T05:53:29.105Z,6.80
2022-12-25T05:55:55.622Z,6.80
2022-12-25T05:58:22.148Z,6.90
2022-12-25T06:00:48.680Z,6.90
2022-12-25T06:03:15.276Z,7.00
2022-12-25T06:05:42.523Z,7.50
2022-12-25T06:08:09.078Z,7.00
2022-12-25T06:10:36.264Z,7.20
2022-12-25T06:13:03.073Z,7.00
2022-12-25T06:15:39.959Z,7.60
2022-12-25T06:18:06.702Z,7.00
2022-12-25T06:20:33.266Z,6.90
2022-12-25T06:23:00.781Z,6.90
2022-12-25T06:25:27.375Z,7.10
2022-12-25T06:27:53.903Z,6.90
2022-12-25T06:30:20.485Z,6.90
2022-12-25T06:32:47.044Z,7.00
2022-12-25T06:35:13.692Z,7.10
2022-12-25T06:37:40.278Z,7.20
2022-12-25T06:40:08.660Z,7.20
2022-12-25T06:42:35.166Z,7.30
2022-12-25T06:45:01.700Z,7.30
2022-12-25T06:47:28.260Z,8.30
2022-12-25T06:49:54.788Z,7.50
2022-12-25T06:52:21.305Z,7.60
2022-12-25T06:54:47.824Z,7.70
2022-12-25T06:57:14.985Z,7.80
2022-12-25T06:59:41.626Z,7.70
2022-12-25T07:02:16.865Z,7.80
2022-12-25T07:04:43.661Z,7.80
2022-12-25T07:07:11.665Z,7.90
2022-12-25T07:09:38.189Z,7.90
2022-12-25T07:12:06.781Z,8.00
2022-12-25T07:14:33.948Z,8.10
2022-12-25T07:17:00.579Z,8.10
2022-12-25T07:19:27.259Z,8.30
2022-12-25T07:21:53.779Z,8.30
2022-12-25T07:24:20.878Z,8.40
2022-12-25T07:26:47.855Z,8.30
2022-12-25T07:29:14.597Z,8.30
2022-12-25T07:31:41.907Z,8.50
2022-12-25T07:34:08.687Z,8.50
2022-12-25T07:36:35.226Z,8.90
2022-12-25T07:39:01.734Z,8.40
2022-12-25T07:41:28.218Z,9.20
2022-12-25T07:44:12.882Z,9.20
2022-12-25T07:46:39.411Z,8.70
2022-12-25T07:49:06.582Z,8.60
2022-12-25T07:51:33.085Z,9.30
2022-12-25T07:53:59.642Z,9.20
2022-12-25T07:56:26.188Z,9.70
2022-12-25T07:58:52.740Z,8.90
2022-12-25T08:01:22.354Z,9.30
2022-12-25T08:03:49.914Z,8.80
2022-12-25T08:06:17.667Z,9.00
2022-12-25T08:08:44.181Z,8.90
2022-12-25T08:11:10.690Z,8.90
2022-12-25T08:13:37.508Z,9.00
2022-12-25T08:16:07.753Z,8.90
2022-12-25T08:18:36.213Z,8.80
2022-12-25T08:21:04.900Z,9.00
2022-12-25T08:23:34.245Z,8.90
2022-12-25T08:26:05.040Z,8.90
2022-12-25T08:28:33.376Z,9.00
2022-12-25T08:31:04.833Z,9.20
2022-12-25T08:33:31.349Z,9.00
2022-12-25T08:36:01.764Z,9.00
2022-12-25T08:38:28.284Z,9.00
2022-12-25T08:40:55.472Z,9.10
2022-12-25T08:43:21.977Z,9.00
2022-12-25T08:45:48.536Z,9.10
2022-12-25T08:48:15.088Z,9.10
2022-12-25T08:50:44.844Z,10.00
2022-12-25T08:53:11.351Z,9.20
2022-12-25T08:55:37.858Z,9.20
2022-12-25T08:58:05.152Z,9.10
2022-12-25T09:00:31.668Z,9.50
2022-12-25T09:02:58.275Z,10.10
2022-12-25T09:05:24.871Z,9.70
2022-12-25T09:07:51.408Z,9.30
2022-12-25T09:10:17.993Z,10.10
2022-12-25T09:12:44.594Z,9.30
2022-12-25T09:15:11.733Z,9.30
2022-12-25T09:17:38.275Z,9.40
2022-12-25T09:20:06.374Z,9.50
2022-12-25T09:22:33.665Z,9.30
2022-12-25T09:25:00.205Z,9.30
2022-12-25T09:27:26.761Z,9.50
2022-12-25T09:29:53.402Z,9.30
2022-12-25T09:32:20.536Z,9.40
2022-12-25T09:34:47.086Z,9.40
2022-12-25T09:37:13.622Z,9.50
2022-12-25T09:39:46.085Z,9.40
2022-12-25T09:42:17.400Z,9.30
2022-12-25T09:44:47.220Z,9.50
2022-12-25T09:47:18.298Z,9.40
2022-12-25T09:49:49.986Z,10.10
2022-12-25T09:52:19.982Z,9.30
2022-12-25T09:54:54.257Z,10.20
2022-12-25T09:57:20.795Z,9.30
2022-12-25T09:59:47.389Z,9.60
2022-12-25T10:02:37.976Z,9.40
2022-12-25T10:05:19.027Z,9.40
2022-12-25T10:07:51.003Z,9.40
2022-12-25T10:10:28.085Z,9.70
2022-12-25T10:13:04.374Z,9.60
2022-12-25T10:15:39.114Z,9.40
2022-12-25T10:18:43.872Z,9.50
2022-12-25T10:21:14.560Z,9.50
2022-12-25T10:23:45.980Z,9.40
2022-12-25T10:26:15.142Z,9.50
2022-12-25T10:28:44.278Z,9.40
2022-12-25T10:31:19.713Z,9.50
2022-12-25T10:33:46.512Z,9.70
2022-12-25T10:36:15.436Z,9.50
2022-12-25T10:38:41.943Z,9.60
2022-12-25T10:41:18.919Z,9.60
2022-12-25T10:43:49.377Z,9.50
2022-12-25T10:46:17.027Z,9.50
2022-12-25T10:48:47.422Z,9.60
2022-12-25T10:51:25.395Z,9.60
2022-12-25T10:53:51.976Z,9.50
2022-12-25T10:56:19.173Z,9.60
2022-12-25T10:58:45.953Z,9.50
2022-12-25T11:01:13.133Z,9.70
2022-12-25T11:03:43.583Z,9.70
2022-12-25T11:06:22.928Z,9.80
2022-12-25T11:08:52.900Z,9.90
2022-12-25T11:11:20.542Z,9.50
2022-12-25T11:13:50.020Z,9.40
2022-12-25T11:16:27.570Z,9.60
2022-12-25T11:18:54.693Z,10.50
2022-12-25T11:21:24.535Z,9.60
2022-12-25T11:23:58.144Z,9.60
2022-12-25T11:26:26.032Z,9.60
2022-12-25T11:28:54.361Z,10.20
2022-12-25T11:31:22.765Z,9.50
2022-12-25T11:33:54.545Z,9.70
2022-12-25T11:36:29.340Z,9.60
2022-12-25T11:38:58.823Z,9.70
2022-12-25T11:41:30.593Z,9.90
2022-12-25T11:44:01.116Z,10.00
2022-12-25T11:46:35.464Z,9.70
2022-12-25T11:49:07.535Z,9.70
2022-12-25T11:51:38.282Z,9.80
2022-12-25T11:54:15.557Z,9.80
2022-12-25T11:56:42.489Z,9.80
2022-12-25T11:59:18.254Z,9.70
2022-12-25T12:01:47.681Z,9.90
2022-12-25T12:04:24.403Z,9.90
2022-12-25T12:07:01.640Z,10.00
2022-12-25T12:09:37.318Z,9.90
2022-12-25T12:12:10.068Z,10.10
2022-12-25T12:14:48.588Z,10.00
2022-12-25T12:17:17.537Z,9.80
2022-12-25T12:19:44.123Z,9.90
2022-12-25T12:22:19.116Z,10.10
2022-12-25T12:24:52.048Z,10.00
2022-12-25T12:27:24.194Z,10.10
2022-12-25T12:29:53.174Z,9.90
2022-12-25T12:32:29.330Z,10.00
2022-12-25T12:34:56.718Z,10.00
2022-12-25T12:37:28.728Z,9.90
2022-12-25T12:39:55.705Z,10.10
2022-12-25T12:42:26.261Z,9.80
2022-12-25T12:44:55.380Z,9.90
2022-12-25T12:47:32.818Z,10.30
2022-12-25T12:50:00.407Z,9.90
2022-12-25T12:52:33.616Z,10.00
2022-12-25T12:55:02.355Z,9.90
2022-12-25T12:57:31.908Z,10.00
2022-12-25T13:00:06.470Z,10.10
2022-12-25T13:03:02.220Z,10.10
2022-12-25T13:05:37.543Z,10.00
2022-12-25T13:08:19.299Z,10.00
2022-12-25T13:10:49.598Z,10.00
2022-12-25T13:13:20.556Z,10.10
2022-12-25T13:15:50.505Z,10.10
2022-12-25T13:18:17.787Z,9.90
2022-12-25T13:20:48.700Z,9.90
2022-12-25T13:23:27.642Z,10.00
2022-12-25T13:25:55.189Z,10.00
2022-12-25T13:28:26.313Z,9.90
2022-12-25T13:30:52.882Z,10.10
2022-12-25T13:33:19.998Z,9.90
2022-12-25T13:35:46.953Z,10.00
2022-12-25T13:38:15.440Z,10.00
2022-12-25T13:41:09.833Z,9.90
2022-12-25T13:43:37.270Z,10.00
2022-12-25T13:46:04.232Z,9.90
2022-12-25T13:48:30.918Z,9.90
2022-12-25T13:50:58.802Z,9.90
2022-12-25T13:53:26.723Z,10.00
2022-12-25T13:55:56.586Z,9.90
2022-12-25T13:58:26.032Z,10.00
2022-12-25T14:00:55.902Z,10.00
2022-12-25T14:03:25.914Z,9.90
2022-12-25T14:05:56.889Z,9.90
2022-12-25T14:08:26.611Z,10.00
2022-12-25T14:10:55.187Z,10.00
2022-12-25T14:13:25.544Z,9.90
2022-12-25T14:15:52.971Z,10.00
2022-12-25T14:18:21.438Z,9.90
2022-12-25T14:20:58.466Z,9.90
2022-12-25T14:23:26.199Z,10.10
2022-12-25T14:25:53.009Z,9.90
2022-12-25T14:28:23.860Z,9.90
2022-12-25T14:30:50.873Z,10.10
2022-12-25T14:33:20.305Z,10.20
2022-12-25T14:35:47.947Z,9.90
2022-12-25T14:38:22.385Z,10.00
2022-12-25T14:40:58.203Z,10.00
2022-12-25T14:43:27.237Z,9.90
2022-12-25T14:45:55.652Z,9.90
2022-12-25T14:48:25.468Z,9.90
2022-12-25T14:50:57.456Z,10.00
2022-12-25T14:53:35.236Z,9.90
2022-12-25T14:56:02.755Z,9.90
2022-12-25T14:58:34.109Z,10.60
2022-12-25T15:01:02.603Z,10.10
2022-12-25T15:03:31.726Z,9.80
2022-12-25T15:06:00.830Z,10.00
2022-12-25T15:08:28.480Z,9.90
2022-12-25T15:11:00.673Z,9.80
2022-12-25T15:13:30.352Z,9.80
2022-12-25T15:16:01.390Z,9.90
2022-12-25T15:18:33.891Z,10.80
2022-12-25T15:21:00.537Z,9.80
2022-12-25T15:23:27.093Z,9.90
2022-12-25T15:25:53.629Z,10.00
2022-12-25T15:28:20.468Z,10.00
2022-12-25T15:30:49.120Z,9.80
2022-12-25T15:33:17.340Z,9.90
2022-12-25T15:35:44.195Z,10.10
2022-12-25T15:38:11.530Z,9.90
2022-12-25T15:40:38.617Z,9.90
2022-12-25T15:43:11.437Z,10.00
2022-12-25T15:45:48.098Z,10.00
2022-12-25T15:48:14.628Z,10.00
2022-12-25T15:50:42.788Z,9.90
2022-12-25T15:53:09.953Z,9.90
2022-12-25T15:55:36.920Z,9.80
2022-12-25T15:58:03.457Z,10.10
2022-12-25T16:00:30.041Z,9.70
2022-12-25T16:02:57.683Z,9.70
2022-12-25T16:05:24.343Z,9.80
2022-12-25T16:07:50.878Z,9.90
2022-12-25T16:10:19.224Z,9.70
2022-12-25T16:12:46.274Z,9.80
2022-12-25T16:15:14.495Z,9.80
2022-12-25T16:17:41.583Z,9.70
2022-12-25T16:20:09.711Z,9.80
2022-12-25T16:22:39.048Z,9.70
2022-12-25T16:25:16.306Z,9.70
2022-12-25T16:27:42.951Z,9.70
2022-12-25T16:30:10.524Z,10.00
2022-12-25T16:32:37.061Z,9.70
2022-12-25T16:35:04.548Z,9.80
2022-12-25T16:37:31.728Z,9.70
2022-12-25T16:39:58.243Z,10.30
2022-12-25T16:42:24.784Z,9.70
2022-12-25T16:44:51.284Z,9.80
2022-12-25T16:47:17.976Z,9.70
2022-12-25T16:49:44.585Z,9.70
2022-12-25T16:52:11.238Z,9.70
2022-12-25T16:54:38.397Z,10.00
2022-12-25T16:57:12.420Z,10.00
2022-12-25T16:59:38.970Z,10.30
2022-12-25T17:02:05.650Z,9.80
2022-12-25T17:04:32.265Z,10.10
2022-12-25T17:06:58.801Z,9.70
2022-12-25T17:09:25.312Z,10.50
2022-12-25T17:11:52.465Z,9.70
2022-12-25T17:14:18.976Z,9.80
2022-12-25T17:16:45.531Z,9.60
2022-12-25T17:19:19.434Z,9.80
2022-12-25T17:21:46.596Z,9.90
2022-12-25T17:24:13.231Z,9.80
2022-12-25T17:26:40.732Z,9.70
2022-12-25T17:29:08.228Z,9.90
2022-12-25T17:31:34.831Z,10.20
2022-12-25T17:34:02.258Z,9.60
2022-12-25T17:36:28.893Z,9.70
2022-12-25T17:38:55.443Z,9.80
2022-12-25T17:41:21.970Z,10.00
2022-12-25T17:43:48.534Z,9.80
2022-12-25T17:46:18.084Z,9.60
2022-12-25T17:48:45.284Z,9.70
2022-12-25T17:51:13.781Z,9.80
2022-12-25T17:53:42.274Z,9.80
2022-12-25T17:56:09.683Z,10.00
2022-12-25T17:58:36.667Z,9.80
2022-12-25T18:01:06.060Z,9.80
2022-12-25T18:03:33.893Z,9.80
2022-12-25T18:06:00.823Z,9.80
2022-12-25T18:08:28.738Z,9.80
2022-12-25T18:11:02.586Z,10.00
2022-12-25T18:13:29.359Z,9.70
2022-12-25T18:15:56.033Z,9.80
2022-12-25T18:18:22.678Z,10.10
2022-12-25T18:20:52.170Z,9.80
2022-12-25T18:23:19.469Z,9.80
2022-12-25T18:25:46.021Z,9.80
2022-12-25T18:28:12.740Z,9.80
2022-12-25T18:30:40.053Z,10.00
2022-12-25T18:33:06.808Z,9.80
2022-12-25T18:35:33.403Z,9.80
2022-12-25T18:38:00.633Z,9.90
2022-12-25T18:40:27.709Z,9.90
2022-12-25T18:43:01.107Z,10.20
2022-12-25T18:45:29.690Z,10.10
2022-12-25T18:47:56.369Z,10.00
2022-12-25T18:50:22.902Z,10.10
2022-12-25T18:52:51.571Z,10.20
2022-12-25T18:55:19.327Z,10.10
2022-12-25T18:57:46.107Z,10.00
2022-12-25T19:00:13.001Z,10.10
2022-12-25T19:02:40.123Z,10.10
2022-12-25T19:05:07.313Z,10.30
2022-12-25T19:07:34.002Z,10.20
2022-12-25T19:10:00.540Z,10.30
2022-12-25T19:12:27.693Z,10.20
2022-12-25T19:14:54.259Z,10.20
2022-12-25T19:17:20.967Z,10.20
2022-12-25T19:19:48.290Z,10.30
2022-12-25T19:22:14.978Z,10.30
2022-12-25T19:24:41.764Z,10.20
2022-12-25T19:27:08.347Z,10.20
2022-12-25T19:30:01.563Z,10.40
2022-12-25T19:32:28.121Z,10.40
2022-12-25T19:34:54.721Z,10.30
2022-12-25T19:37:21.223Z,10.30
2022-12-25T19:39:47.981Z,10.30
2022-12-25T19:42:15.569Z,10.20
2022-12-25T19:44:42.379Z,10.20
2022-12-25T19:47:10.480Z,10.80
2022-12-25T19:49:36.999Z,10.20
2022-12-25T19:52:04.064Z,10.20
2022-12-25T19:54:33.708Z,10.20
2022-12-25T19:57:00.200Z,10.30
2022-12-25T19:59:26.759Z,10.40
2022-12-25T20:01:53.706Z,10.10
2022-12-25T20:04:21.040Z,10.30
2022-12-25T20:06:48.009Z,10.30
2022-12-25T20:09:20.607Z,10.50
2022-12-25T20:11:47.708Z,10.30
2022-12-25T20:14:15.616Z,10.30
2022-12-25T20:16:43.125Z,10.40
2022-12-25T20:19:11.709Z,10.30
2022-12-25T20:21:39.264Z,10.30
2022-12-25T20:24:09.300Z,10.30
2022-12-25T20:26:36.496Z,10.20
2022-12-25T20:29:03.087Z,10.30
2022-12-25T20:31:31.061Z,10.30
2022-12-25T20:33:59.478Z,10.30
2022-12-25T20:36:29.669Z,10.30
2022-12-25T20:39:01.867Z,10.50
2022-12-25T20:41:29.736Z,10.30
2022-12-25T20:43:57.006Z,10.30
2022-12-25T20:46:23.680Z,10.30
2022-12-25T20:48:51.005Z,10.90
2022-12-25T20:51:19.270Z,10.40
2022-12-25T20:53:46.437Z,10.40
2022-12-25T20:56:15.697Z,10.30
2022-12-25T20:58:42.530Z,10.30
2022-12-25T21:01:11.935Z,10.30
2022-12-25T21:03:39.232Z,10.30
2022-12-25T21:06:06.692Z,10.30
2022-12-25T21:08:33.478Z,10.30
2022-12-25T21:11:00.978Z,10.30
2022-12-25T21:13:29.522Z,10.50
2022-12-25T21:15:56.226Z,10.40
2022-12-25T21:18:24.368Z,11.00
2022-12-25T21:20:53.204Z,10.50
2022-12-25T21:23:20.040Z,10.40
2022-12-25T21:25:48.061Z,10.20
2022-12-25T21:28:15.110Z,10.40
2022-12-25T21:30:42.494Z,10.30
2022-12-25T21:33:34.080Z,10.40
2022-12-25T21:36:05.760Z,10.40
2022-12-25T21:38:32.448Z,10.30
2022-12-25T21:41:02.858Z,10.40
2022-12-25T21:43:29.371Z,10.30
2022-12-25T21:46:00.226Z,10.70
2022-12-25T21:48:27.042Z,10.40
2022-12-25T21:51:11.817Z,10.40
2022-12-25T21:53:38.997Z,10.50
2022-12-25T21:56:05.824Z,10.60
2022-12-25T21:58:32.360Z,10.40
2022-12-25T22:01:02.619Z,10.40
2022-12-25T22:03:29.255Z,10.40
2022-12-25T22:06:20.961Z,10.50
2022-12-25T22:08:48.105Z,10.40
2022-12-25T22:11:29.255Z,10.40
2022-12-25T22:14:13.758Z,10.30
2022-12-25T22:16:59.121Z,10.40
2022-12-25T22:19:42.020Z,10.50
2022-12-25T22:22:08.695Z,10.40
2022-12-25T22:24:35.353Z,10.30
2022-12-25T22:27:01.912Z,10.50
2022-12-25T22:29:28.590Z,10.30
2022-12-25T22:31:55.811Z,10.30
2022-12-25T22:34:22.416Z,10.40
2022-12-25T22:36:49.419Z,10.40
2022-12-25T22:39:21.819Z,10.40
2022-12-25T22:41:48.709Z,10.50
2022-12-25T22:44:17.544Z,10.50
2022-12-25T22:46:44.683Z,10.50
2022-12-25T22:49:11.940Z,10.30
2022-12-25T22:51:38.457Z,10.30
2022-12-25T22:54:05.081Z,10.30
2022-12-25T22:56:31.658Z,10.30
2022-12-25T22:59:00.800Z,10.30
2022-12-25T23:01:27.367Z,10.50
2022-12-25T23:03:54.044Z,10.30
2022-12-25T23:06:21.460Z,10.70
2022-12-25T23:08:48.183Z,10.40
2022-12-25T23:11:16.978Z,10.40
2022-12-25T23:14:02.337Z,10.40
2022-12-25T23:16:29.324Z,10.50
2022-12-25T23:19:13.912Z,10.40
2022-12-25T23:22:00.119Z,10.30
2022-12-25T23:24:44.990Z,10.40
2022-12-25T23:27:11.676Z,10.40
2022-12-25T23:29:39.089Z,11.00
2022-12-25T23:32:07.946Z,10.20
2022-12-25T23:34:36.623Z,10.40
2022-12-25T23:37:03.889Z,10.30
2022-12-25T23:39:30.534Z,10.30
2022-12-25T23:41:57.341Z,10.30
2022-12-25T23:44:24.982Z,10.40
2022-12-25T23:46:52.210Z,10.40
2022-12-25T23:49:19.865Z,10.50
2022-12-25T23:51:46.570Z,10.30
2022-12-25T23:54:16.004Z,10.30
2022-12-25T23:56:43.031Z,10.30
2022-12-25T23:59:10.287Z,10.40
